EYKA/KUN METAR and TAF weather

Enter ICAO airport designator
Station Type Date Time Source
EYKA METAR 2018/04/21 11:20 UTC NOAA

EYKA 211120Z 29015G25KT 250V010 CAVOK 18/03 Q1007


Station Type Date Time Source
EYKA Decoded METAR 2018/04/21 11:20 UTC NOAA

Kaunas, Lithuania (EYKA) 54-54N 023-55-12E
Apr 21, 2018 - 07:20 AM EDT / 2018.04.21 1120 UTC
Wind: from the WNW (290 degrees) at 17 MPH (15 KT) gusting to 29 MPH (25 KT) (direction variable):0
Visibility: greater than 7 mile(s):0
Temperature: 64 F (18 C)
Dew Point: 37 F (3 C)
Relative Humidity: 36%
Pressure (altimeter): 29.74 in. Hg (1007 hPa)
ob: EYKA 211120Z 29015G25KT 250V010 CAVOK 18/03 Q1007
cycle: 11

Station Type Date Time Source
EYKA TAF 2018/04/21 12:09 UTC NOAA

TAF TAF EYKA 211104Z 2112/2212 31020G34KT 9999 SCT040
TEMPO 2115/2118 29010G24KT
BECMG 2118/2119 29010KT
BECMG 2204/2206 BKN040
TEMPO 2209/2212 31020G30KT


Example: see airport list